Time;durP1;ratioP1;P1;durP2;ratioP2;P2;SDS_P1;SDS_P2;PMS_P1;PMS_P2;Temp;Humidity;BMP_temperature;BMP_pressure;BME280_temperature;BME280_humidity;BME280_pressure;Samples;Min_cycle;Max_cycle;Signal;HPM_P1;HPM_P2
2022/09/05 00:02:27;;;;;;;5.23;3.47;;;;;;;;;;5065351;28;20624;-78
2022/09/05 00:05:23;;;;;;;3.93;3.63;;;;;;;;;;5046958;28;20872;-79
2022/09/05 00:07:52;;;;;;;4.20;3.90;;;;;;;;;;5051103;28;20648;-79
2022/09/05 00:10:31;;;;;;;3.80;3.50;;;;;;;;;;5067510;28;20221;-78
2022/09/05 00:12:58;;;;;;;4.53;3.53;;;;;;;;;;5050500;28;20179;-77
2022/09/05 00:15:27;;;;;;;3.43;3.20;;;;;;;;;;5072685;28;20197;-78
2022/09/05 00:18:19;;;;;;;5.00;3.60;;;;;;;;;;5054916;28;20272;-79
2022/09/05 00:20:51;;;;;;;4.00;3.10;;;;;;;;;;5051322;28;20204;-78
2022/09/05 00:23:43;;;;;;;3.57;3.27;;;;;;;;;;5061483;28;20174;-78
2022/09/05 00:26:09;;;;;;;3.37;3.07;;;;;;;;;;5066303;28;20283;-78
2022/09/05 00:28:54;;;;;;;3.60;3.30;;;;;;;;;;5063105;28;20196;-79
2022/09/05 00:31:40;;;;;;;4.33;3.33;;;;;;;;;;5047225;28;20258;-79
2022/09/05 00:34:24;;;;;;;3.40;3.10;;;;;;;;;;5046152;28;20205;-78
2022/09/05 00:36:54;;;;;;;3.77;3.33;;;;;;;;;;5061762;28;20234;-77
2022/09/05 00:39:23;;;;;;;4.00;3.67;;;;;;;;;;5040057;28;20182;-77
2022/09/05 00:41:50;;;;;;;3.80;3.50;;;;;;;;;;5051381;28;20260;-78
2022/09/05 00:44:18;;;;;;;3.57;3.27;;;;;;;;;;5061902;28;20197;-78
2022/09/05 00:47:06;;;;;;;4.50;3.50;;;;;;;;;;5061692;28;20836;-78
2022/09/05 00:49:45;;;;;;;3.90;3.60;;;;;;;;;;5057471;28;20596;-78
2022/09/05 00:52:26;;;;;;;3.60;3.30;;;;;;;;;;5046608;28;20177;-78
2022/09/05 00:54:58;;;;;;;3.47;3.17;;;;;;;;;;5065639;28;20667;-78
2022/09/05 00:57:29;;;;;;;3.40;3.10;;;;;;;;;;5041367;28;20190;-78
2022/09/05 01:00:08;;;;;;;4.33;3.40;;;;;;;;;;5057922;28;20235;-78
2022/09/05 01:02:37;;;;;;;3.50;3.20;;;;;;;;;;5070091;28;20324;-78
2022/09/05 01:05:07;;;;;;;4.10;3.20;;;;;;;;;;5033222;28;20225;-78
2022/09/05 01:07:35;;;;;;;5.47;3.80;;;;;;;;;;5067825;28;20196;-78
2022/09/05 01:10:05;;;;;;;4.17;3.60;;;;;;;;;;5067391;28;20216;-77
2022/09/05 01:12:44;;;;;;;3.67;3.37;;;;;;;;;;5051436;28;20233;-77
2022/09/05 01:15:22;;;;;;;3.27;2.97;;;;;;;;;;5047258;28;20201;-78
2022/09/05 01:18:07;;;;;;;3.60;3.30;;;;;;;;;;5063428;28;20214;-77
2022/09/05 01:20:48;;;;;;;4.07;3.30;;;;;;;;;;5062200;28;20195;-78
2022/09/05 01:23:15;;;;;;;3.87;3.57;;;;;;;;;;5056626;28;20323;-78
2022/09/05 01:25:56;;;;;;;3.50;3.20;;;;;;;;;;5067173;28;20211;-78
2022/09/05 01:28:25;;;;;;;4.23;3.30;;;;;;;;;;5047376;28;20198;-78
2022/09/05 01:31:12;;;;;;;5.03;3.67;;;;;;;;;;5063926;28;20209;-78
2022/09/05 01:33:46;;;;;;;4.13;3.60;;;;;;;;;;5053347;28;20185;-78
2022/09/05 01:36:18;;;;;;;3.83;3.40;;;;;;;;;;5059579;28;20196;-78
2022/09/05 01:39:03;;;;;;;3.63;3.13;;;;;;;;;;5063084;28;20185;-78
2022/09/05 01:41:33;;;;;;;5.57;3.60;;;;;;;;;;5045155;28;20191;-78
2022/09/05 01:44:19;;;;;;;3.70;3.40;;;;;;;;;;5072542;28;20196;-77
2022/09/05 01:46:56;;;;;;;3.80;3.50;;;;;;;;;;5043014;28;20190;-78
2022/09/05 01:49:40;;;;;;;4.30;3.90;;;;;;;;;;5052241;28;20224;-78
2022/09/05 01:52:07;;;;;;;5.30;3.07;;;;;;;;;;5046087;28;20740;-78
2022/09/05 01:54:42;;;;;;;4.07;3.60;;;;;;;;;;5060313;28;20205;-78
2022/09/05 01:57:24;;;;;;;4.10;3.40;;;;;;;;;;5055583;28;20224;-78
2022/09/05 02:00:09;;;;;;;5.00;3.40;;;;;;;;;;5046701;28;20262;-78
2022/09/05 02:02:41;;;;;;;3.50;3.20;;;;;;;;;;5045212;28;20216;-77
2022/09/05 02:05:07;;;;;;;3.60;3.30;;;;;;;;;;5048377;28;20304;-78
2022/09/05 02:07:36;;;;;;;3.70;3.40;;;;;;;;;;5066175;28;20212;-78
2022/09/05 02:10:18;;;;;;;5.87;4.10;;;;;;;;;;5036627;28;20247;-78
2022/09/05 02:12:44;;;;;;;4.33;3.57;;;;;;;;;;5053251;28;20413;-77
2022/09/05 02:15:16;;;;;;;3.87;3.50;;;;;;;;;;5064643;28;20583;-77
2022/09/05 02:17:42;;;;;;;4.50;4.10;;;;;;;;;;5046936;28;20185;-78
2022/09/05 02:20:08;;;;;;;3.87;3.30;;;;;;;;;;5061108;28;20235;-78
2022/09/05 02:22:53;;;;;;;3.77;3.47;;;;;;;;;;5062584;28;20192;-77
2022/09/05 02:25:28;;;;;;;3.80;3.50;;;;;;;;;;5060552;28;20205;-78
2022/09/05 02:28:03;;;;;;;4.00;3.60;;;;;;;;;;5043155;28;20203;-78
2022/09/05 02:30:33;;;;;;;4.57;4.00;;;;;;;;;;5062282;28;20269;-78
2022/09/05 02:33:24;;;;;;;4.10;3.70;;;;;;;;;;5065600;28;20264;-77
2022/09/05 02:35:50;;;;;;;4.57;4.00;;;;;;;;;;5059517;28;20204;-78
2022/09/05 02:38:19;;;;;;;3.70;3.40;;;;;;;;;;5059480;28;20201;-78
2022/09/05 02:40:48;;;;;;;4.10;3.70;;;;;;;;;;5056019;28;20269;-78
2022/09/05 02:43:26;;;;;;;4.27;3.60;;;;;;;;;;5046072;28;20193;-78
2022/09/05 02:46:04;;;;;;;3.93;3.63;;;;;;;;;;5023954;28;20532;-78
2022/09/05 02:48:40;;;;;;;4.30;3.67;;;;;;;;;;5045070;28;20252;-78
2022/09/05 02:51:09;;;;;;;4.03;3.60;;;;;;;;;;5052098;28;20209;-77
2022/09/05 02:53:38;;;;;;;3.80;3.40;;;;;;;;;;5076227;28;20196;-79
2022/09/05 02:56:04;;;;;;;4.20;3.80;;;;;;;;;;5050552;28;20181;-78
2022/09/05 02:58:33;;;;;;;5.03;3.70;;;;;;;;;;5061058;28;20185;-78
2022/09/05 03:01:00;;;;;;;4.50;4.10;;;;;;;;;;5047126;28;20174;-78
2022/09/05 03:03:46;;;;;;;4.17;3.70;;;;;;;;;;5060576;28;20203;-78
2022/09/05 03:06:12;;;;;;;4.37;3.60;;;;;;;;;;5049439;28;20197;-78
2022/09/05 03:08:44;;;;;;;3.70;3.40;;;;;;;;;;5048711;28;20206;-78
2022/09/05 03:11:13;;;;;;;4.30;3.90;;;;;;;;;;5058131;28;20223;-78
2022/09/05 03:13:58;;;;;;;4.77;4.00;;;;;;;;;;5069527;28;20189;-79
2022/09/05 03:16:38;;;;;;;4.10;3.70;;;;;;;;;;5070665;28;20177;-78
2022/09/05 03:19:23;;;;;;;3.83;3.43;;;;;;;;;;5069408;28;20188;-78
2022/09/05 03:21:58;;;;;;;4.27;3.80;;;;;;;;;;5050029;28;20177;-77
2022/09/05 03:24:36;;;;;;;4.17;3.77;;;;;;;;;;5066500;28;20208;-78
2022/09/05 03:27:17;;;;;;;4.33;3.93;;;;;;;;;;5049505;28;20280;-78
2022/09/05 03:29:55;;;;;;;4.87;3.60;;;;;;;;;;5053184;28;20219;-77
2022/09/05 03:32:27;;;;;;;4.07;3.70;;;;;;;;;;5059185;28;20196;-77
2022/09/05 03:34:53;;;;;;;3.90;3.60;;;;;;;;;;5063721;28;20209;-78
2022/09/05 03:37:37;;;;;;;4.47;4.07;;;;;;;;;;5065411;28;20221;-77
2022/09/05 03:40:04;;;;;;;4.83;4.40;;;;;;;;;;5068656;28;20268;-78
2022/09/05 03:42:49;;;;;;;7.23;4.50;;;;;;;;;;5067532;28;20189;-78
2022/09/05 03:45:18;;;;;;;4.40;4.00;;;;;;;;;;5055305;28;20209;-78
2022/09/05 03:47:57;;;;;;;4.40;4.00;;;;;;;;;;5050566;28;20551;-78
2022/09/05 03:50:27;;;;;;;4.57;4.17;;;;;;;;;;5072851;28;20212;-78
2022/09/05 03:53:00;;;;;;;4.50;4.10;;;;;;;;;;5055253;28;20203;-78
2022/09/05 03:55:37;;;;;;;4.87;4.17;;;;;;;;;;5050928;28;20229;-78
2022/09/05 03:58:23;;;;;;;4.93;3.63;;;;;;;;;;5069609;28;20648;-78
2022/09/05 04:01:02;;;;;;;4.80;4.40;;;;;;;;;;5035862;28;20177;-78
2022/09/05 04:03:37;;;;;;;4.90;3.60;;;;;;;;;;5063135;28;20193;-78
2022/09/05 04:06:09;;;;;;;5.60;4.20;;;;;;;;;;5067758;28;20683;-78
2022/09/05 04:08:53;;;;;;;4.32;3.92;;;;;;;;;;5040548;28;20441;-78
2022/09/05 04:11:34;;;;;;;5.97;3.90;;;;;;;;;;5067908;28;20673;-78
2022/09/05 04:14:12;;;;;;;5.37;4.07;;;;;;;;;;5071308;28;20840;-78
2022/09/05 04:16:46;;;;;;;4.20;3.80;;;;;;;;;;5062234;28;20196;-78
2022/09/05 04:19:28;;;;;;;5.57;4.00;;;;;;;;;;5067480;28;20183;-77
2022/09/05 04:21:58;;;;;;;5.03;3.90;;;;;;;;;;5031453;28;20177;-78
2022/09/05 04:24:30;;;;;;;5.03;4.20;;;;;;;;;;5066738;28;20283;-78
2022/09/05 04:27:06;;;;;;;6.03;4.40;;;;;;;;;;5056932;28;20186;-78
2022/09/05 04:30:10;;;;;;;5.00;4.00;;;;;;;;;;5049128;28;20712;-78
2022/09/05 04:32:49;;;;;;;4.03;3.70;;;;;;;;;;5024361;28;20184;-78
2022/09/05 04:35:15;;;;;;;4.03;3.63;;;;;;;;;;5012419;28;20208;-78
2022/09/05 04:37:54;;;;;;;4.37;3.97;;;;;;;;;;5034403;28;20181;-78
2022/09/05 04:40:29;;;;;;;4.13;3.73;;;;;;;;;;5067462;28;20770;-78
2022/09/05 04:42:57;;;;;;;4.60;4.20;;;;;;;;;;5062871;28;20181;-78
2022/09/05 04:45:25;;;;;;;4.47;4.00;;;;;;;;;;5031153;28;20209;-78
2022/09/05 04:47:53;;;;;;;4.73;4.33;;;;;;;;;;5069756;28;20896;-77
2022/09/05 04:50:22;;;;;;;4.63;4.17;;;;;;;;;;5056501;28;20217;-78
2022/09/05 04:52:55;;;;;;;4.40;4.00;;;;;;;;;;5052407;28;20182;-77
2022/09/05 04:55:29;;;;;;;4.40;4.00;;;;;;;;;;5071672;28;20205;-78
2022/09/05 04:57:55;;;;;;;4.67;4.27;;;;;;;;;;5051507;28;20181;-77
2022/09/05 05:00:48;;;;;;;5.87;4.50;;;;;;;;;;5056678;28;20276;-77
2022/09/05 05:03:17;;;;;;;4.63;4.23;;;;;;;;;;5075008;28;20280;-77
2022/09/05 05:05:49;;;;;;;5.10;4.20;;;;;;;;;;5068374;28;20257;-77
2022/09/05 05:08:24;;;;;;;5.30;4.10;;;;;;;;;;5070369;28;20182;-77
2022/09/05 05:10:58;;;;;;;5.53;5.03;;;;;;;;;;5068859;28;20212;-77
2022/09/05 05:13:29;;;;;;;6.27;4.60;;;;;;;;;;5067325;28;20219;-78
2022/09/05 05:15:57;;;;;;;5.80;4.77;;;;;;;;;;5049373;28;20621;-78
2022/09/05 05:18:32;;;;;;;5.40;4.90;;;;;;;;;;5067030;28;20292;-78
2022/09/05 05:20:58;;;;;;;6.17;4.97;;;;;;;;;;5065130;28;20188;-77
2022/09/05 05:23:30;;;;;;;5.77;5.10;;;;;;;;;;5064388;28;20185;-77
2022/09/05 05:25:57;;;;;;;5.40;4.90;;;;;;;;;;5064563;28;20606;-77
2022/09/05 05:28:47;;;;;;;6.13;4.90;;;;;;;;;;5029246;28;20331;-77
2022/09/05 05:31:16;;;;;;;5.30;4.80;;;;;;;;;;5056001;28;20228;-77
2022/09/05 05:33:45;;;;;;;5.43;4.60;;;;;;;;;;5060902;28;20177;-77
2022/09/05 05:36:16;;;;;;;4.73;4.33;;;;;;;;;;5063198;28;20192;-77
2022/09/05 05:38:48;;;;;;;5.13;4.63;;;;;;;;;;5026391;28;20185;-76
2022/09/05 05:41:21;;;;;;;7.27;4.53;;;;;;;;;;5066986;28;20265;-77
2022/09/05 05:43:49;;;;;;;6.37;4.67;;;;;;;;;;5067628;28;20751;-76
2022/09/05 05:46:24;;;;;;;5.47;4.97;;;;;;;;;;5070504;28;20250;-76
2022/09/05 05:48:52;;;;;;;6.30;5.60;;;;;;;;;;5042412;28;20216;-77
2022/09/05 05:51:19;;;;;;;6.03;5.03;;;;;;;;;;5041877;28;20209;-77
2022/09/05 05:53:52;;;;;;;5.87;5.27;;;;;;;;;;5055668;28;20268;-77
2022/09/05 05:56:30;;;;;;;6.33;5.57;;;;;;;;;;5047097;28;20181;-77
2022/09/05 05:59:15;;;;;;;6.47;5.83;;;;;;;;;;5060901;28;20241;-79
2022/09/05 06:01:45;;;;;;;6.37;5.70;;;;;;;;;;5041845;28;20182;-79
2022/09/05 06:04:17;;;;;;;6.07;5.40;;;;;;;;;;5047089;28;20223;-78
2022/09/05 06:07:02;;;;;;;8.13;5.60;;;;;;;;;;5067414;28;20209;-79
2022/09/05 06:09:40;;;;;;;5.90;5.40;;;;;;;;;;5060368;28;20240;-78
2022/09/05 06:12:10;;;;;;;6.93;6.00;;;;;;;;;;5046885;28;20196;-79
2022/09/05 06:14:52;;;;;;;6.77;6.17;;;;;;;;;;5068236;28;20189;-79
2022/09/05 06:17:24;;;;;;;6.63;6.03;;;;;;;;;;5065408;28;20177;-78
2022/09/05 06:19:53;;;;;;;6.77;5.80;;;;;;;;;;5068530;28;20649;-81
2022/09/05 06:22:31;;;;;;;7.93;6.43;;;;;;;;;;5065266;28;20230;-78
2022/09/05 06:25:09;;;;;;;8.43;6.17;;;;;;;;;;5067223;28;20208;-81
2022/09/05 06:27:39;;;;;;;7.47;6.73;;;;;;;;;;5044518;28;20274;-81
2022/09/05 06:30:09;;;;;;;7.17;6.47;;;;;;;;;;5050558;28;20208;-81
2022/09/05 06:32:57;;;;;;;6.67;5.53;;;;;;;;;;5061198;28;20181;-82
2022/09/05 06:35:31;;;;;;;6.20;5.60;;;;;;;;;;5047600;28;20234;-82
2022/09/05 06:38:00;;;;;;;5.30;4.90;;;;;;;;;;5047914;28;20246;-81
2022/09/05 06:40:45;;;;;;;5.70;5.10;;;;;;;;;;5045681;28;20189;-80
2022/09/05 06:43:14;;;;;;;5.30;4.80;;;;;;;;;;5053333;28;20205;-81
2022/09/05 06:45:51;;;;;;;5.87;4.73;;;;;;;;;;5064496;28;20395;-81
2022/09/05 06:48:17;;;;;;;5.43;4.87;;;;;;;;;;5053080;28;20196;-81
2022/09/05 06:50:50;;;;;;;5.93;5.33;;;;;;;;;;5058287;28;20213;-79
2022/09/05 06:53:25;;;;;;;6.10;5.50;;;;;;;;;;5052964;28;20757;-79
2022/09/05 06:56:01;;;;;;;6.37;5.27;;;;;;;;;;5068343;28;20191;-79
2022/09/05 06:59:02;;;;;;;6.53;5.70;;;;;;;;;;5049275;28;20177;-79
2022/09/05 07:01:32;;;;;;;6.57;5.80;;;;;;;;;;5069654;28;20188;-79
2022/09/05 07:04:11;;;;;;;5.53;5.03;;;;;;;;;;5063915;28;20228;-79
2022/09/05 07:06:52;;;;;;;5.77;5.17;;;;;;;;;;5069362;28;20181;-79
2022/09/05 07:09:31;;;;;;;7.07;5.23;;;;;;;;;;5068325;28;20212;-79
2022/09/05 07:12:00;;;;;;;4.93;4.47;;;;;;;;;;5060426;28;20213;-79
2022/09/05 07:14:28;;;;;;;5.57;4.73;;;;;;;;;;5071697;28;20227;-79
2022/09/05 07:17:05;;;;;;;5.70;5.10;;;;;;;;;;5065069;28;20189;-79
2022/09/05 07:19:32;;;;;;;6.80;5.50;;;;;;;;;;5070169;28;20200;-79
2022/09/05 07:22:13;;;;;;;5.47;4.97;;;;;;;;;;5067717;28;20185;-79
2022/09/05 07:24:50;;;;;;;5.70;5.20;;;;;;;;;;5066598;28;20232;-79
2022/09/05 07:27:39;;;;;;;7.23;6.07;;;;;;;;;;5068299;28;20276;-83
2022/09/05 07:30:06;;;;;;;5.90;5.30;;;;;;;;;;5072790;28;20200;-83
2022/09/05 07:32:42;;;;;;;6.17;5.67;;;;;;;;;;5038031;28;20174;-85
2022/09/05 07:35:14;;;;;;;6.73;5.83;;;;;;;;;;5041238;28;20291;-84
2022/09/05 07:37:43;;;;;;;7.07;6.37;;;;;;;;;;5040505;28;20178;-84
2022/09/05 07:40:11;;;;;;;7.37;6.30;;;;;;;;;;5051419;28;20487;-84
2022/09/05 07:42:43;;;;;;;7.00;6.30;;;;;;;;;;5032596;28;20614;-84
2022/09/05 07:45:16;;;;;;;7.53;5.70;;;;;;;;;;5048684;28;20210;-84
2022/09/05 07:48:06;;;;;;;6.40;5.70;;;;;;;;;;5036743;28;20189;-86
2022/09/05 07:50:36;;;;;;;6.67;5.90;;;;;;;;;;5044633;28;20205;-84
2022/09/05 07:53:05;;;;;;;6.50;5.90;;;;;;;;;;5021010;28;20185;-83
2022/09/05 07:55:35;;;;;;;6.13;5.63;;;;;;;;;;5063473;28;20216;-85
2022/09/05 07:58:06;;;;;;;6.53;5.93;;;;;;;;;;5036573;28;20208;-84
2022/09/05 08:00:35;;;;;;;6.10;5.23;;;;;;;;;;5034261;28;20219;-83
2022/09/05 08:03:11;;;;;;;5.90;5.30;;;;;;;;;;5060122;28;20268;-85
2022/09/05 08:05:45;;;;;;;4.60;4.27;;;;;;;;;;5037196;28;20208;-84
2022/09/05 08:08:15;;;;;;;5.90;5.40;;;;;;;;;;5052198;28;20283;-84
2022/09/05 08:10:48;;;;;;;5.70;5.20;;;;;;;;;;5061462;28;20320;-86
2022/09/05 08:13:17;;;;;;;6.20;5.70;;;;;;;;;;5018532;28;20202;-84
2022/09/05 08:15:47;;;;;;;5.83;5.23;;;;;;;;;;5066117;28;20209;-81
2022/09/05 08:18:35;;;;;;;5.63;5.13;;;;;;;;;;5040515;28;22144;-79
2022/09/05 08:21:22;;;;;;;5.93;4.97;;;;;;;;;;5047366;28;20472;-82
2022/09/05 08:23:51;;;;;;;4.90;4.50;;;;;;;;;;5063588;28;20585;-79
2022/09/05 08:26:29;;;;;;;5.80;4.73;;;;;;;;;;5052229;28;20193;-82
2022/09/05 08:29:14;;;;;;;6.90;4.40;;;;;;;;;;5066460;28;20394;-81
2022/09/05 08:31:40;;;;;;;5.33;4.83;;;;;;;;;;5032097;28;20224;-82
2022/09/05 08:34:10;;;;;;;6.53;5.23;;;;;;;;;;5054560;28;20201;-83
2022/09/05 08:36:39;;;;;;;6.53;4.87;;;;;;;;;;5067682;28;20272;-82
2022/09/05 08:39:06;;;;;;;6.30;4.97;;;;;;;;;;5051711;28;20188;-82
2022/09/05 08:41:45;;;;;;;6.60;5.10;;;;;;;;;;5049385;28;22306;-83
2022/09/05 08:44:11;;;;;;;5.33;4.80;;;;;;;;;;5047418;28;20208;-84
2022/09/05 08:46:40;;;;;;;6.73;5.00;;;;;;;;;;5064870;28;20661;-82
2022/09/05 08:49:26;;;;;;;7.23;5.67;;;;;;;;;;5049406;28;20204;-84
2022/09/05 08:51:54;;;;;;;6.37;5.10;;;;;;;;;;5044751;28;20261;-84
2022/09/05 08:54:39;;;;;;;5.73;4.73;;;;;;;;;;5044962;28;20716;-82
2022/09/05 08:57:19;;;;;;;5.53;5.03;;;;;;;;;;5048485;28;20259;-82
2022/09/05 08:59:51;;;;;;;4.40;3.90;;;;;;;;;;5061286;28;20173;-81
2022/09/05 09:02:21;;;;;;;6.90;4.50;;;;;;;;;;5011179;28;20185;-81
2022/09/05 09:04:50;;;;;;;5.27;4.50;;;;;;;;;;5045749;28;20213;-83
2022/09/05 09:07:35;;;;;;;11.70;4.80;;;;;;;;;;5043440;28;20825;-82
2022/09/05 09:10:27;;;;;;;5.03;4.10;;;;;;;;;;5046739;28;20197;-81
2022/09/05 09:12:56;;;;;;;4.73;3.67;;;;;;;;;;5066294;28;20385;-83
2022/09/05 09:15:42;;;;;;;5.37;4.23;;;;;;;;;;5068236;28;20570;-78
2022/09/05 09:18:19;;;;;;;5.70;4.10;;;;;;;;;;5037462;28;20185;-83
2022/09/05 09:20:53;;;;;;;6.37;3.83;;;;;;;;;;5070714;28;20193;-81
2022/09/05 09:23:38;;;;;;;4.90;4.30;;;;;;;;;;5066935;28;20181;-81
2022/09/05 09:26:04;;;;;;;5.27;3.93;;;;;;;;;;5065898;28;20254;-81
2022/09/05 09:28:46;;;;;;;5.80;4.50;;;;;;;;;;5044215;28;20201;-82
2022/09/05 09:31:14;;;;;;;4.90;4.40;;;;;;;;;;5059444;28;20342;-82
2022/09/05 09:33:45;;;;;;;4.93;4.43;;;;;;;;;;5025192;28;20556;-82
2022/09/05 09:36:21;;;;;;;4.30;4.00;;;;;;;;;;5062896;28;20196;-82
2022/09/05 09:38:50;;;;;;;4.77;4.37;;;;;;;;;;5048389;28;20195;-82
2022/09/05 09:41:16;;;;;;;4.30;3.90;;;;;;;;;;5029660;28;20204;-82
2022/09/05 09:44:02;;;;;;;5.30;4.13;;;;;;;;;;5032699;28;20916;-82
2022/09/05 09:46:42;;;;;;;4.47;3.80;;;;;;;;;;5065938;28;20694;-82
2022/09/05 09:49:27;;;;;;;3.70;3.30;;;;;;;;;;5062962;28;20209;-83
2022/09/05 09:51:59;;;;;;;3.20;2.90;;;;;;;;;;5050194;28;20264;-82
2022/09/05 09:54:25;;;;;;;3.83;3.00;;;;;;;;;;5029491;28;20221;-82
2022/09/05 09:57:03;;;;;;;4.00;2.90;;;;;;;;;;5065341;28;20297;-83
2022/09/05 09:59:48;;;;;;;3.50;3.20;;;;;;;;;;5047696;28;20197;-82
2022/09/05 10:02:20;;;;;;;3.03;2.83;;;;;;;;;;5043553;28;20411;-82
2022/09/05 10:05:08;;;;;;;4.90;3.23;;;;;;;;;;5046147;28;20232;-82
2022/09/05 10:07:51;;;;;;;4.13;3.53;;;;;;;;;;5046028;28;20181;-83
2022/09/05 10:10:18;;;;;;;3.50;2.93;;;;;;;;;;5062640;28;20362;-84
2022/09/05 10:12:44;;;;;;;3.63;3.17;;;;;;;;;;5055977;28;20178;-81
2022/09/05 10:15:21;;;;;;;3.60;3.30;;;;;;;;;;5063482;28;20240;-84
2022/09/05 10:18:05;;;;;;;3.27;2.97;;;;;;;;;;5045464;28;20250;-84
2022/09/05 10:20:36;;;;;;;4.60;3.17;;;;;;;;;;5062928;28;20728;-81
2022/09/05 10:23:15;;;;;;;3.10;2.40;;;;;;;;;;5062174;28;20186;-83
2022/09/05 10:25:48;;;;;;;3.17;2.80;;;;;;;;;;5062258;28;20245;-82
2022/09/05 10:28:17;;;;;;;3.33;2.83;;;;;;;;;;5039261;28;20649;-81
2022/09/05 10:30:46;;;;;;;2.97;2.63;;;;;;;;;;5057143;28;20550;-82
2022/09/05 10:33:15;;;;;;;3.00;2.70;;;;;;;;;;5059861;28;20193;-83
2022/09/05 10:35:42;;;;;;;2.90;2.60;;;;;;;;;;5023791;28;21814;-82
2022/09/05 10:38:10;;;;;;;3.37;2.67;;;;;;;;;;5059445;28;20263;-78
2022/09/05 10:40:38;;;;;;;2.83;2.60;;;;;;;;;;5047648;28;20198;-81
2022/09/05 10:43:43;;;;;;;3.50;2.60;;;;;;;;;;5044969;28;20209;-84
2022/09/05 10:46:23;;;;;;;3.40;2.67;;;;;;;;;;5023437;28;20190;-80
2022/09/05 10:48:58;;;;;;;5.17;2.80;;;;;;;;;;5022548;28;20190;-79
2022/09/05 10:51:29;;;;;;;3.07;2.77;;;;;;;;;;5050866;28;20228;-79
2022/09/05 10:54:13;;;;;;;3.43;2.50;;;;;;;;;;5059693;28;20233;-79
2022/09/05 10:56:44;;;;;;;3.30;2.87;;;;;;;;;;5065753;28;20276;-79
2022/09/05 10:59:30;;;;;;;3.13;2.80;;;;;;;;;;5064591;28;20700;-80
2022/09/05 11:02:16;;;;;;;3.03;2.73;;;;;;;;;;5061205;28;20177;-80
2022/09/05 11:04:43;;;;;;;3.87;2.90;;;;;;;;;;5065570;28;20207;-80
2022/09/05 11:07:20;;;;;;;7.07;3.17;;;;;;;;;;5050657;28;20193;-80
2022/09/05 11:10:02;;;;;;;4.67;2.60;;;;;;;;;;5047896;28;20292;-80
2022/09/05 11:12:47;;;;;;;4.57;2.93;;;;;;;;;;5061475;28;20190;-79
2022/09/05 11:15:32;;;;;;;4.50;3.27;;;;;;;;;;5058002;28;20901;-79
2022/09/05 11:18:24;;;;;;;4.93;3.03;;;;;;;;;;5059882;28;20188;-79
2022/09/05 11:21:06;;;;;;;4.30;2.93;;;;;;;;;;5018069;28;20644;-79
2022/09/05 11:23:32;;;;;;;5.30;2.97;;;;;;;;;;5054254;28;20182;-76
2022/09/05 11:26:04;;;;;;;3.70;2.90;;;;;;;;;;5063434;28;20180;-76
2022/09/05 11:28:35;;;;;;;3.60;2.90;;;;;;;;;;5056232;28;20186;-77
2022/09/05 11:31:03;;;;;;;3.30;3.00;;;;;;;;;;5058959;28;20211;-76
2022/09/05 11:33:51;;;;;;;4.47;2.63;;;;;;;;;;5063155;28;20261;-78
2022/09/05 11:36:38;;;;;;;3.03;2.50;;;;;;;;;;5065242;28;20177;-82
2022/09/05 11:39:12;;;;;;;2.63;2.23;;;;;;;;;;5055914;28;20202;-80
2022/09/05 11:42:07;;;;;;;3.13;2.67;;;;;;;;;;5068606;28;20652;-80
2022/09/05 11:44:57;;;;;;;3.23;2.43;;;;;;;;;;5054477;28;20700;-79
2022/09/05 11:47:26;;;;;;;3.53;2.30;;;;;;;;;;5056398;28;20213;-79
2022/09/05 11:50:19;;;;;;;2.67;2.10;;;;;;;;;;5063552;28;20219;-78
2022/09/05 11:53:04;;;;;;;2.73;2.40;;;;;;;;;;5062737;28;20177;-81
2022/09/05 11:55:58;;;;;;;4.77;2.30;;;;;;;;;;5062435;28;20230;-78
2022/09/05 11:58:27;;;;;;;2.43;2.23;;;;;;;;;;5060271;28;20213;-79
2022/09/05 12:01:08;;;;;;;2.50;2.30;;;;;;;;;;5062493;28;20277;-79
2022/09/05 12:03:49;;;;;;;3.33;2.33;;;;;;;;;;5043102;28;20260;-79
2022/09/05 12:06:34;;;;;;;2.40;2.10;;;;;;;;;;5062754;28;20182;-78
2022/09/05 12:09:19;;;;;;;2.20;2.00;;;;;;;;;;5067847;28;20296;-79
2022/09/05 12:12:05;;;;;;;3.80;2.27;;;;;;;;;;5066274;28;20213;-79
2022/09/05 12:14:43;;;;;;;4.40;2.20;;;;;;;;;;5066092;28;20211;-79
2022/09/05 12:17:21;;;;;;;3.13;2.20;;;;;;;;;;5063337;28;20711;-79
2022/09/05 12:19:54;;;;;;;3.60;2.07;;;;;;;;;;5046996;28;20223;-79
2022/09/05 12:22:28;;;;;;;2.50;1.90;;;;;;;;;;5070120;28;20264;-80
2022/09/05 12:25:06;;;;;;;2.17;1.93;;;;;;;;;;5070169;28;20197;-80
2022/09/05 12:27:36;;;;;;;2.73;2.00;;;;;;;;;;5062708;28;20651;-80
2022/09/05 12:30:07;;;;;;;3.67;2.00;;;;;;;;;;5053468;28;20252;-79
2022/09/05 12:32:35;;;;;;;2.20;2.00;;;;;;;;;;5060798;28;20395;-79
2022/09/05 12:35:02;;;;;;;2.07;1.87;;;;;;;;;;5067793;28;20688;-79
2022/09/05 12:37:32;;;;;;;4.37;2.10;;;;;;;;;;5057360;28;20183;-79
2022/09/05 12:40:00;;;;;;;2.50;1.87;;;;;;;;;;5057744;28;20183;-79
2022/09/05 12:42:39;;;;;;;1.87;1.77;;;;;;;;;;5063546;28;20742;-79
2022/09/05 12:45:24;;;;;;;1.97;1.70;;;;;;;;;;5062355;28;20277;-79
2022/09/05 12:47:53;;;;;;;2.37;1.93;;;;;;;;;;5062056;28;20656;-79
2022/09/05 12:50:22;;;;;;;2.33;1.70;;;;;;;;;;5063816;28;20297;-79
2022/09/05 12:52:57;;;;;;;2.80;1.80;;;;;;;;;;5069626;28;20177;-79
2022/09/05 12:55:31;;;;;;;5.00;1.97;;;;;;;;;;5072271;28;20196;-79
2022/09/05 12:58:01;;;;;;;3.17;1.90;;;;;;;;;;5067361;28;20181;-79
2022/09/05 13:00:40;;;;;;;2.20;2.00;;;;;;;;;;5069989;28;20185;-79
2022/09/05 13:03:08;;;;;;;1.93;1.60;;;;;;;;;;5070123;28;20333;-79
2022/09/05 13:05:44;;;;;;;2.33;1.70;;;;;;;;;;5074045;28;20215;-79
2022/09/05 13:08:14;;;;;;;1.70;1.60;;;;;;;;;;5068236;28;20183;-80
2022/09/05 13:10:41;;;;;;;2.93;1.80;;;;;;;;;;5050838;28;20697;-80
2022/09/05 13:13:22;;;;;;;1.70;1.60;;;;;;;;;;5062804;28;20176;-79
2022/09/05 13:15:49;;;;;;;4.07;1.77;;;;;;;;;;5061432;28;20206;-79
2022/09/05 13:18:17;;;;;;;1.80;1.70;;;;;;;;;;5056330;28;20220;-79
2022/09/05 13:20:50;;;;;;;1.70;1.60;;;;;;;;;;5048355;28;20656;-79
2022/09/05 13:23:19;;;;;;;1.60;1.50;;;;;;;;;;5066221;28;20184;-79
2022/09/05 13:25:55;;;;;;;1.57;1.47;;;;;;;;;;5063203;28;20201;-79
2022/09/05 13:28:24;;;;;;;1.53;1.43;;;;;;;;;;5065003;28;20196;-79
2022/09/05 13:30:54;;;;;;;1.63;1.53;;;;;;;;;;5064529;28;20812;-80
2022/09/05 13:33:23;;;;;;;2.63;1.50;;;;;;;;;;5068473;28;20185;-79
2022/09/05 13:36:04;;;;;;;1.73;1.48;;;;;;;;;;5066850;28;20284;-79
2022/09/05 13:38:40;;;;;;;2.20;1.60;;;;;;;;;;5059867;28;20179;-79
2022/09/05 13:41:12;;;;;;;3.53;1.52;;;;;;;;;;5060520;28;20270;-79
2022/09/05 13:43:38;;;;;;;2.33;1.50;;;;;;;;;;5059117;28;20754;-79
2022/09/05 13:46:09;;;;;;;1.70;1.60;;;;;;;;;;5061409;28;20196;-79
2022/09/05 13:48:38;;;;;;;1.58;1.30;;;;;;;;;;5060003;28;20279;-79
2022/09/05 13:51:18;;;;;;;2.33;1.20;;;;;;;;;;5038593;28;20684;-79
2022/09/05 13:53:52;;;;;;;1.73;1.50;;;;;;;;;;5062575;28;20273;-78
2022/09/05 13:56:22;;;;;;;1.60;1.40;;;;;;;;;;5059443;28;20217;-79
2022/09/05 13:59:07;;;;;;;2.47;1.52;;;;;;;;;;5063771;28;20178;-79
2022/09/05 14:01:50;;;;;;;2.70;1.48;;;;;;;;;;5064355;28;20174;-79
2022/09/05 14:04:28;;;;;;;2.47;1.50;;;;;;;;;;5061438;28;20287;-79
2022/09/05 14:07:13;;;;;;;1.80;1.40;;;;;;;;;;5063219;28;20283;-79
2022/09/05 14:09:45;;;;;;;1.75;1.55;;;;;;;;;;5055914;28;20182;-79
2022/09/05 14:12:12;;;;;;;2.97;1.25;;;;;;;;;;5056672;28;20182;-79
2022/09/05 14:14:44;;;;;;;1.52;1.42;;;;;;;;;;5056887;28;20205;-79
2022/09/05 14:17:28;;;;;;;1.50;1.40;;;;;;;;;;5061301;28;20238;-79
2022/09/05 14:22:43;;;;;;;3.03;1.52;;;;;;;;;;5057088;28;20731;-79
2022/09/05 14:25:28;;;;;;;1.63;1.40;;;;;;;;;;5051507;28;20292;-79
2022/09/05 14:27:55;;;;;;;1.60;1.50;;;;;;;;;;5039183;28;20212;-79
2022/09/05 14:30:44;;;;;;;2.95;1.70;;;;;;;;;;5052393;28;20302;-79
2022/09/05 14:33:14;;;;;;;2.85;1.40;;;;;;;;;;5050362;28;20181;-79
2022/09/05 14:35:48;;;;;;;1.40;1.30;;;;;;;;;;5050504;28;20197;-79
2022/09/05 14:38:18;;;;;;;2.90;1.50;;;;;;;;;;5062768;28;20198;-80
2022/09/05 14:41:05;;;;;;;1.70;1.60;;;;;;;;;;5055466;28;20196;-79
2022/09/05 14:43:47;;;;;;;1.88;1.50;;;;;;;;;;5021583;28;20198;-79
2022/09/05 14:46:33;;;;;;;1.85;1.65;;;;;;;;;;5063489;28;20202;-79
2022/09/05 14:49:17;;;;;;;2.65;1.50;;;;;;;;;;5047027;28;20626;-79
2022/09/05 14:51:45;;;;;;;1.60;1.50;;;;;;;;;;5062129;28;20203;-79
2022/09/05 14:54:13;;;;;;;1.50;1.40;;;;;;;;;;5052040;28;20312;-79
2022/09/05 14:56:39;;;;;;;2.55;1.50;;;;;;;;;;5061679;28;20173;-79
2022/09/05 14:59:14;;;;;;;1.80;1.42;;;;;;;;;;5049200;28;20177;-79
2022/09/05 15:01:47;;;;;;;7.63;1.65;;;;;;;;;;5059429;28;20208;-79
2022/09/05 15:04:17;;;;;;;43.45;4.43;;;;;;;;;;5058576;28;20229;-78
2022/09/05 15:06:58;;;;;;;29.75;3.33;;;;;;;;;;5058762;28;20184;-79
2022/09/05 15:09:24;;;;;;;2.70;1.40;;;;;;;;;;5059258;28;20217;-79
2022/09/05 15:11:50;;;;;;;2.80;1.55;;;;;;;;;;5025789;28;21005;-79
2022/09/05 15:14:18;;;;;;;3.72;1.40;;;;;;;;;;5041975;28;20213;-79
2022/09/05 15:16:56;;;;;;;1.75;1.20;;;;;;;;;;5058701;28;20189;-79
2022/09/05 15:19:41;;;;;;;1.80;1.45;;;;;;;;;;5062768;28;20188;-78
2022/09/05 15:22:23;;;;;;;2.40;1.48;;;;;;;;;;5047838;28;20230;-79
2022/09/05 15:25:01;;;;;;;35.53;4.25;;;;;;;;;;5065125;28;20208;-78
2022/09/05 15:27:28;;;;;;;3.78;1.58;;;;;;;;;;5046285;28;20199;-79
2022/09/05 15:29:55;;;;;;;7.13;1.90;;;;;;;;;;5047826;28;20862;-80
2022/09/05 15:32:21;;;;;;;3.22;1.30;;;;;;;;;;5029149;28;20218;-80
2022/09/05 15:34:49;;;;;;;1.33;1.20;;;;;;;;;;5066256;28;20756;-77